Time,TemperatureF,DewpointF,PressureIn,WindDirection,WindDirectionDegrees,WindSpeedMPH,WindSpeedGustMPH,Humidity,HourlyPrecipIn,Conditions,Clouds,dailyrainin,SoftwareType,DateUTC
2013-02-15 00:05:00,26.1,23.0,29.90,SW,226,0.0,0.0,87,0.00,,,0.00,vanprod,2013-02-15 05:05:00,
2013-02-15 00:15:00,26.0,23.0,29.91,SW,226,0.0,0.0,87,0.00,,,0.00,vanprod,2013-02-15 05:15:00,
2013-02-15 00:25:00,26.0,23.0,29.91,SW,226,0.0,0.0,87,0.00,,,0.00,vanprod,2013-02-15 05:25:00,
2013-02-15 00:35:00,26.0,23.0,29.91,SW,226,0.0,0.0,87,0.00,,,0.00,vanprod,2013-02-15 05:35:00,
2013-02-15 00:45:00,25.8,22.0,29.90,SW,224,0.0,0.0,87,0.00,,,0.00,vanprod,2013-02-15 05:45:00,
2013-02-15 00:55:00,25.7,22.0,29.90,SW,226,0.0,0.0,87,0.00,,,0.00,vanprod,2013-02-15 05:55:00,
2013-02-15 01:05:00,25.4,22.0,29.91,SW,226,0.0,0.0,87,0.00,,,0.00,vanprod,2013-02-15 06:05:00,
2013-02-15 01:15:00,25.1,22.0,29.90,SW,224,0.0,0.0,88,0.00,,,0.00,vanprod,2013-02-15 06:15:00,
2013-02-15 01:25:00,24.8,22.0,29.90,SW,226,0.0,0.0,88,0.00,,,0.00,vanprod,2013-02-15 06:25:00,
2013-02-15 01:35:00,24.7,22.0,29.91,SW,226,0.0,0.0,88,0.00,,,0.00,vanprod,2013-02-15 06:35:00,
2013-02-15 01:45:00,24.4,21.0,29.91,SW,223,0.0,0.0,88,0.00,,,0.00,vanprod,2013-02-15 06:45:00,
2013-02-15 01:55:00,24.1,21.0,29.91,SW,226,0.0,0.0,88,0.00,,,0.00,vanprod,2013-02-15 06:55:00,
2013-02-15 02:05:00,23.6,21.0,29.91,SW,227,0.0,0.0,88,0.00,,,0.00,vanprod,2013-02-15 07:05:00,
2013-02-15 02:15:00,23.2,20.0,29.91,SW,226,0.0,0.0,88,0.00,,,0.00,vanprod,2013-02-15 07:15:00,
2013-02-15 02:25:00,22.9,20.0,29.91,SW,226,0.0,0.0,88,0.00,,,0.00,vanprod,2013-02-15 07:25:00,
2013-02-15 02:35:00,22.5,19.0,29.91,SW,226,0.0,0.0,88,0.00,,,0.00,vanprod,2013-02-15 07:35:00,
2013-02-15 02:45:00,22.2,19.0,29.91,SW,226,0.0,0.0,89,0.00,,,0.00,vanprod,2013-02-15 07:45:00,
2013-02-15 02:55:00,21.9,19.0,29.91,SW,224,0.0,0.0,89,0.00,,,0.00,vanprod,2013-02-15 07:55:00,
2013-02-15 03:05:00,21.8,19.0,29.90,SW,226,0.0,0.0,90,0.00,,,0.00,vanprod,2013-02-15 08:05:00,
2013-02-15 03:15:00,21.6,19.0,29.90,SW,226,0.0,0.0,90,0.00,,,0.00,vanprod,2013-02-15 08:15:00,
2013-02-15 03:25:00,21.4,19.0,29.90,SW,227,0.0,0.0,90,0.00,,,0.00,vanprod,2013-02-15 08:25:00,
2013-02-15 03:35:00,21.1,19.0,29.91,SW,226,0.0,0.0,90,0.00,,,0.00,vanprod,2013-02-15 08:35:00,
2013-02-15 03:45:00,21.0,19.0,29.90,SW,224,0.0,0.0,91,0.00,,,0.00,vanprod,2013-02-15 08:45:00,
2013-02-15 03:55:00,21.0,19.0,29.90,SW,226,0.0,0.0,91,0.00,,,0.00,vanprod,2013-02-15 08:55:00,
2013-02-15 04:05:00,20.8,19.0,29.91,SW,226,0.0,0.0,91,0.00,,,0.00,vanprod,2013-02-15 09:05:00,
2013-02-15 04:15:00,20.6,18.0,29.91,SW,224,0.0,0.0,91,0.00,,,0.00,vanprod,2013-02-15 09:15:00,
2013-02-15 04:25:00,20.3,18.0,29.91,SW,223,0.0,0.0,91,0.00,,,0.00,vanprod,2013-02-15 09:25:00,
2013-02-15 04:35:00,20.0,18.0,29.91,SW,226,0.0,0.0,91,0.00,,,0.00,vanprod,2013-02-15 09:35:00,
2013-02-15 04:45:00,20.0,18.0,29.90,SW,226,0.0,0.0,91,0.00,,,0.00,vanprod,2013-02-15 09:45:00,
2013-02-15 04:55:00,20.0,18.0,29.90,SW,226,0.0,0.0,91,0.00,,,0.00,vanprod,2013-02-15 09:55:00,
2013-02-15 05:05:00,20.0,18.0,29.90,SW,224,0.0,0.0,92,0.00,,,0.00,vanprod,2013-02-15 10:05:00,
2013-02-15 05:15:00,20.0,18.0,29.90,SW,226,0.0,0.0,91,0.00,,,0.00,vanprod,2013-02-15 10:15:00,
2013-02-15 05:25:00,19.9,18.0,29.90,SW,226,0.0,0.0,92,0.00,,,0.00,vanprod,2013-02-15 10:25:00,
2013-02-15 05:35:00,20.2,18.0,29.90,SW,226,0.0,0.0,92,0.00,,,0.00,vanprod,2013-02-15 10:35:00,
2013-02-15 05:45:00,20.5,18.0,29.89,SW,227,0.0,0.0,92,0.00,,,0.00,vanprod,2013-02-15 10:45:00,
2013-02-15 05:55:00,20.8,19.0,29.89,SW,226,0.0,0.0,92,0.00,,,0.00,vanprod,2013-02-15 10:55:00,
2013-02-15 06:05:00,21.1,19.0,29.89,SW,226,0.0,0.0,92,0.00,,,0.00,vanprod,2013-02-15 11:05:00,
2013-02-15 06:15:00,21.1,19.0,29.89,SW,224,0.0,0.0,91,0.00,,,0.00,vanprod,2013-02-15 11:15:00,
2013-02-15 06:25:00,21.1,19.0,29.89,SW,226,0.0,0.0,91,0.00,,,0.00,vanprod,2013-02-15 11:25:00,
2013-02-15 06:35:00,21.1,19.0,29.90,SW,226,0.0,0.0,91,0.00,,,0.00,vanprod,2013-02-15 11:35:00,
2013-02-15 06:45:00,21.3,19.0,29.90,SW,226,0.0,0.0,92,0.00,,,0.00,vanprod,2013-02-15 11:45:00,
2013-02-15 06:55:00,21.4,19.0,29.90,SW,224,0.0,0.0,92,0.00,,,0.00,vanprod,2013-02-15 11:55:00,
2013-02-15 07:05:00,21.9,20.0,29.90,SW,226,0.0,0.0,92,0.00,,,0.00,vanprod,2013-02-15 12:05:00,
2013-02-15 07:15:00,22.2,20.0,29.90,SW,226,0.0,0.0,92,0.00,,,0.00,vanprod,2013-02-15 12:15:00,
2013-02-15 07:25:00,23.0,21.0,29.90,SW,226,0.0,0.0,92,0.00,,,0.00,vanprod,2013-02-15 12:25:00,
2013-02-15 07:35:00,23.6,22.0,29.90,SW,226,0.0,0.0,92,0.00,,,0.00,vanprod,2013-02-15 12:35:00,
2013-02-15 07:45:00,23.8,22.0,29.90,SW,229,0.0,0.0,92,0.00,,,0.00,vanprod,2013-02-15 12:45:00,
2013-02-15 07:55:00,23.9,22.0,29.90,SSW,193,0.0,0.0,92,0.00,,,0.00,vanprod,2013-02-15 12:55:00,
2013-02-15 08:05:00,23.9,22.0,29.89,South,191,0.0,0.0,91,0.00,,,0.00,vanprod,2013-02-15 13:05:00,
2013-02-15 08:15:00,24.1,22.0,29.89,South,191,0.0,0.0,91,0.00,,,0.00,vanprod,2013-02-15 13:15:00,
2013-02-15 08:25:00,24.2,22.0,29.89,SSW,192,0.0,0.0,91,0.00,,,0.00,vanprod,2013-02-15 13:25:00,
2013-02-15 08:35:00,24.7,22.0,29.90,South,191,0.0,0.0,91,0.00,,,0.00,vanprod,2013-02-15 13:35:00,
2013-02-15 08:45:00,25.3,23.0,29.90,South,189,0.0,0.0,92,0.00,,,0.00,vanprod,2013-02-15 13:45:00,
2013-02-15 08:55:00,26.1,24.0,29.90,South,191,0.0,0.0,91,0.00,,,0.00,vanprod,2013-02-15 13:55:00,
2013-02-15 09:05:00,27.0,25.0,29.91,SSW,192,0.0,0.0,92,0.00,,,0.00,vanprod,2013-02-15 14:05:00,
2013-02-15 09:15:00,28.2,26.0,29.91,SSW,192,0.0,0.0,91,0.00,,,0.00,vanprod,2013-02-15 14:15:00,
2013-02-15 09:25:00,29.8,27.0,29.91,South,191,0.0,0.0,91,0.00,,,0.00,vanprod,2013-02-15 14:25:00,
2013-02-15 09:35:00,32.1,29.0,29.91,SW,236,1.0,0.0,89,0.00,,,0.00,vanprod,2013-02-15 14:35:00,
2013-02-15 09:45:00,33.5,30.0,29.91,South,191,1.0,0.0,86,0.00,,,0.00,vanprod,2013-02-15 14:45:00,
2013-02-15 09:55:00,35.3,30.0,29.91,SW,216,1.0,2.0,81,0.00,,,0.00,vanprod,2013-02-15 14:55:00,
2013-02-15 10:05:00,36.6,30.0,29.90,SW,215,1.0,0.0,78,0.00,,,0.00,vanprod,2013-02-15 15:05:00,
2013-02-15 10:15:00,37.8,31.0,29.90,SW,224,2.0,2.0,75,0.00,,,0.00,vanprod,2013-02-15 15:15:00,
2013-02-15 10:25:00,38.9,31.0,29.90,SW,223,1.0,0.0,73,0.00,,,0.00,vanprod,2013-02-15 15:25:00,
2013-02-15 10:35:00,40.1,31.0,29.90,SW,223,1.0,1.0,70,0.00,,,0.00,vanprod,2013-02-15 15:35:00,
2013-02-15 10:45:00,41.2,31.0,29.89,WSW,257,2.0,2.0,67,0.00,,,0.00,vanprod,2013-02-15 15:45:00,
2013-02-15 10:55:00,42.3,31.0,29.89,SSW,196,2.0,2.0,64,0.00,,,0.00,vanprod,2013-02-15 15:55:00,
2013-02-15 11:05:00,43.2,32.0,29.89,SW,226,1.0,0.0,63,0.00,,,0.00,vanprod,2013-02-15 16:05:00,
2013-02-15 11:15:00,43.8,32.0,29.88,South,175,1.0,1.0,62,0.00,,,0.00,vanprod,2013-02-15 16:15:00,
2013-02-15 11:25:00,44.1,32.0,29.88,SSE,152,1.0,0.0,61,0.00,,,0.00,vanprod,2013-02-15 16:25:00,
2013-02-15 11:35:00,44.3,31.0,29.87,SW,217,2.0,2.0,60,0.00,,,0.00,vanprod,2013-02-15 16:35:00,
2013-02-15 11:45:00,44.3,31.0,29.87,SSE,168,1.0,0.0,59,0.00,,,0.00,vanprod,2013-02-15 16:45:00,
2013-02-15 11:55:00,44.3,31.0,29.87,SSW,193,2.0,2.0,59,0.00,,,0.00,vanprod,2013-02-15 16:55:00,
2013-02-15 12:05:00,44.5,31.0,29.86,South,171,1.0,2.0,59,0.00,,,0.00,vanprod,2013-02-15 17:05:00,
2013-02-15 12:15:00,44.9,32.0,29.85,South,172,2.0,2.0,59,0.00,,,0.00,vanprod,2013-02-15 17:15:00,
2013-02-15 12:25:00,45.2,32.0,29.85,SSE,157,2.0,2.0,59,0.00,,,0.00,vanprod,2013-02-15 17:25:00,
2013-02-15 12:35:00,45.8,32.0,29.84,SSE,160,2.0,2.0,58,0.00,,,0.00,vanprod,2013-02-15 17:35:00,
2013-02-15 12:45:00,46.2,31.0,29.84,South,186,2.0,0.0,55,0.00,,,0.00,vanprod,2013-02-15 17:45:00,
2013-02-15 12:55:00,46.7,31.0,29.84,SSE,151,2.0,2.0,55,0.00,,,0.00,vanprod,2013-02-15 17:55:00,
2013-02-15 13:05:00,46.5,32.0,29.83,WSW,253,2.0,0.0,57,0.00,,,0.00,vanprod,2013-02-15 18:05:00,
2013-02-15 13:15:00,46.5,32.0,29.82,SSE,160,2.0,2.0,56,0.00,,,0.00,vanprod,2013-02-15 18:15:00,
2013-02-15 13:25:00,47.0,32.0,29.82,SE,137,2.0,2.0,55,0.00,,,0.00,vanprod,2013-02-15 18:25:00,
2013-02-15 13:35:00,47.6,31.0,29.82,SE,145,1.0,2.0,53,0.00,,,0.00,vanprod,2013-02-15 18:35:00,
2013-02-15 13:45:00,47.9,32.0,29.82,WSW,256,1.0,2.0,54,0.00,,,0.00,vanprod,2013-02-15 18:45:00,
2013-02-15 13:55:00,48.0,32.0,29.82,SSW,210,2.0,2.0,54,0.00,,,0.00,vanprod,2013-02-15 18:55:00,
2013-02-15 14:05:00,48.2,32.0,29.82,South,171,2.0,2.0,53,0.00,,,0.00,vanprod,2013-02-15 19:05:00,
2013-02-15 14:15:00,48.3,31.0,29.82,South,185,2.0,2.0,52,0.00,,,0.00,vanprod,2013-02-15 19:15:00,
2013-02-15 14:25:00,48.9,32.0,29.82,SW,222,2.0,3.0,51,0.00,,,0.00,vanprod,2013-02-15 19:25:00,
2013-02-15 14:35:00,48.8,32.0,29.82,South,185,2.0,2.0,52,0.00,,,0.00,vanprod,2013-02-15 19:35:00,
2013-02-15 14:45:00,48.5,32.0,29.81,South,171,2.0,0.0,53,0.00,,,0.00,vanprod,2013-02-15 19:45:00,
2013-02-15 14:55:00,48.3,32.0,29.81,SSE,158,1.0,5.0,54,0.00,,,0.00,vanprod,2013-02-15 19:55:00,
2013-02-15 15:05:00,48.2,32.0,29.81,South,188,2.0,3.0,54,0.00,,,0.00,vanprod,2013-02-15 20:05:00,
2013-02-15 15:15:00,47.7,32.0,29.81,South,176,2.0,0.0,54,0.00,,,0.00,vanprod,2013-02-15 20:15:00,
2013-02-15 15:25:00,47.3,32.0,29.81,NW,323,2.0,2.0,54,0.00,,,0.00,vanprod,2013-02-15 20:25:00,
2013-02-15 15:35:00,47.3,32.0,29.81,SE,126,2.0,2.0,54,0.00,,,0.00,vanprod,2013-02-15 20:35:00,
2013-02-15 15:45:00,47.0,32.0,29.81,South,188,1.0,2.0,55,0.00,,,0.00,vanprod,2013-02-15 20:45:00,
2013-02-15 15:55:00,47.3,32.0,29.81,South,171,1.0,0.0,55,0.00,,,0.00,vanprod,2013-02-15 20:55:00,
2013-02-15 16:05:00,46.8,32.0,29.80,South,189,0.0,2.0,56,0.00,,,0.00,vanprod,2013-02-15 21:05:00,
2013-02-15 16:15:00,46.2,32.0,29.80,South,191,1.0,0.0,57,0.00,,,0.00,vanprod,2013-02-15 21:15:00,
2013-02-15 16:25:00,45.7,32.0,29.80,SSW,210,1.0,0.0,58,0.00,,,0.00,vanprod,2013-02-15 21:25:00,
2013-02-15 16:35:00,45.1,32.0,29.80,South,169,0.0,0.0,59,0.00,,,0.00,vanprod,2013-02-15 21:35:00,
2013-02-15 16:45:00,44.5,32.0,29.81,ESE,120,0.0,0.0,61,0.00,,,0.00,vanprod,2013-02-15 21:45:00,
2013-02-15 16:55:00,44.1,32.0,29.81,SSE,161,0.0,0.0,61,0.00,,,0.00,vanprod,2013-02-15 21:55:00,
2013-02-15 17:05:00,43.1,31.0,29.81,SSE,161,0.0,0.0,63,0.00,,,0.00,vanprod,2013-02-15 22:05:00,
2013-02-15 17:15:00,42.1,31.0,29.81,SSE,161,0.0,0.0,65,0.00,,,0.00,vanprod,2013-02-15 22:15:00,
2013-02-15 17:25:00,41.2,31.0,29.81,SSE,162,0.0,0.0,67,0.00,,,0.00,vanprod,2013-02-15 22:25:00,
2013-02-15 17:35:00,40.6,31.0,29.81,SSE,162,0.0,0.0,69,0.00,,,0.00,vanprod,2013-02-15 22:35:00,
2013-02-15 17:45:00,39.6,31.0,29.81,SSE,161,0.0,0.0,71,0.00,,,0.00,vanprod,2013-02-15 22:45:00,
2013-02-15 17:55:00,39.1,31.0,29.81,SSE,162,0.0,0.0,72,0.00,,,0.00,vanprod,2013-02-15 22:55:00,
2013-02-15 18:05:00,38.5,31.0,29.81,SSE,161,0.0,0.0,74,0.00,,,0.00,vanprod,2013-02-15 23:05:00,
2013-02-15 18:15:00,38.0,31.0,29.81,SSE,162,0.0,0.0,76,0.00,,,0.00,vanprod,2013-02-15 23:15:00,
2013-02-15 18:25:00,37.5,31.0,29.81,SSE,161,0.0,0.0,77,0.00,,,0.00,vanprod,2013-02-15 23:25:00,
2013-02-15 18:35:00,36.9,31.0,29.81,SSE,161,0.0,0.0,78,0.00,,,0.00,vanprod,2013-02-15 23:35:00,
2013-02-15 18:45:00,36.5,31.0,29.82,SSE,162,0.0,0.0,80,0.00,,,0.00,vanprod,2013-02-15 23:45:00,
2013-02-15 18:55:00,36.2,31.0,29.82,SSE,161,0.0,0.0,81,0.00,,,0.00,vanprod,2013-02-15 23:55:00,
2013-02-15 19:05:00,35.9,31.0,29.82,SSE,161,0.0,0.0,81,0.00,,,0.00,vanprod,2013-02-16 00:05:00,
2013-02-15 19:15:00,35.5,31.0,29.82,SSE,161,0.0,0.0,82,0.00,,,0.00,vanprod,2013-02-16 00:15:00,
2013-02-15 19:25:00,35.0,30.0,29.82,SSE,161,0.0,0.0,83,0.00,,,0.00,vanprod,2013-02-16 00:25:00,
2013-02-15 19:35:00,34.4,30.0,29.84,West,260,1.0,3.0,84,0.00,,,0.00,vanprod,2013-02-16 00:35:00,
2013-02-15 19:45:00,34.9,31.0,29.84,South,182,1.0,0.0,84,0.00,,,0.00,vanprod,2013-02-16 00:45:00,
2013-02-15 19:55:00,35.6,31.0,29.84,South,181,0.0,0.0,84,0.00,,,0.00,vanprod,2013-02-16 00:55:00,
2013-02-15 20:05:00,36.0,31.0,29.84,South,182,0.0,0.0,83,0.00,,,0.00,vanprod,2013-02-16 01:05:00,
2013-02-15 20:15:00,36.2,32.0,29.84,South,182,0.0,0.0,83,0.00,,,0.00,vanprod,2013-02-16 01:15:00,
2013-02-15 20:25:00,36.2,31.0,29.84,South,179,0.0,0.0,81,0.00,,,0.00,vanprod,2013-02-16 01:25:00,
2013-02-15 20:35:00,35.9,31.0,29.84,South,182,0.0,0.0,81,0.00,,,0.00,vanprod,2013-02-16 01:35:00,
2013-02-15 20:45:00,35.3,30.0,29.85,South,181,0.0,0.0,80,0.00,,,0.00,vanprod,2013-02-16 01:45:00,
2013-02-15 20:56:00,34.9,30.0,29.85,South,181,0.0,0.0,81,0.00,,,0.00,vanprod,2013-02-16 01:56:00,
2013-02-15 21:05:00,34.3,29.0,29.85,South,181,0.0,0.0,82,0.00,,,0.00,vanprod,2013-02-16 02:05:00,
2013-02-15 21:15:00,33.8,29.0,29.86,South,182,0.0,0.0,83,0.00,,,0.00,vanprod,2013-02-16 02:15:00,
2013-02-15 21:25:00,33.4,29.0,29.86,South,182,0.0,0.0,84,0.00,,,0.00,vanprod,2013-02-16 02:25:00,
2013-02-15 21:35:00,32.8,28.0,29.87,South,181,0.0,0.0,84,0.00,,,0.00,vanprod,2013-02-16 02:35:00,
2013-02-15 21:45:00,32.5,28.0,29.86,South,182,0.0,0.0,85,0.00,,,0.00,vanprod,2013-02-16 02:45:00,
2013-02-15 21:55:00,32.1,28.0,29.86,South,181,0.0,0.0,86,0.00,,,0.00,vanprod,2013-02-16 02:55:00,
2013-02-15 22:05:00,31.6,28.0,29.86,South,184,0.0,0.0,86,0.00,,,0.00,vanprod,2013-02-16 03:05:00,
2013-02-15 22:15:00,31.2,28.0,29.87,South,182,0.0,0.0,87,0.00,,,0.00,vanprod,2013-02-16 03:15:00,
2013-02-15 22:25:00,30.6,27.0,29.87,South,182,0.0,0.0,88,0.00,,,0.00,vanprod,2013-02-16 03:25:00,
2013-02-15 22:35:00,30.3,27.0,29.86,South,182,0.0,0.0,88,0.00,,,0.00,vanprod,2013-02-16 03:35:00,
2013-02-15 22:45:00,30.1,27.0,29.85,South,182,0.0,0.0,88,0.00,,,0.00,vanprod,2013-02-16 03:45:00,
2013-02-15 22:55:00,29.7,27.0,29.85,South,184,0.0,0.0,88,0.00,,,0.00,vanprod,2013-02-16 03:55:00,
2013-02-15 23:05:00,29.4,26.0,29.86,South,182,0.0,0.0,88,0.00,,,0.00,vanprod,2013-02-16 04:05:00,
2013-02-15 23:15:00,29.1,26.0,29.87,South,182,0.0,0.0,88,0.00,,,0.00,vanprod,2013-02-16 04:15:00,
2013-02-15 23:25:00,29.0,26.0,29.87,South,181,0.0,0.0,89,0.00,,,0.00,vanprod,2013-02-16 04:25:00,
2013-02-15 23:35:00,29.0,26.0,29.86,South,181,0.0,0.0,89,0.00,,,0.00,vanprod,2013-02-16 04:35:00,
2013-02-15 23:45:00,28.8,26.0,29.86,South,182,0.0,0.0,89,0.00,,,0.00,vanprod,2013-02-16 04:45:00,
2013-02-15 23:55:00,28.5,26.0,29.86,South,182,0.0,0.0,89,0.00,,,0.00,vanprod,2013-02-16 04:55:00,